Date,TemperatureHighF,TemperatureAvgF,TemperatureLowF,DewpointHighF,DewpointAvgF,DewpointLowF,HumidityHigh,HumidityAvg,HumidityLow,PressureMaxIn,PressureMinIn,WindSpeedMaxMPH,WindSpeedAvgMPH,GustSpeedMaxMPH,PrecipitationSumIn
2013-2-15,52.0,52.0,52.0,46.3,46.3,46.3,81,81,81,29.94,29.94,0,0,0,0.00
2013-2-16,52.0,52.0,52.0,46.3,46.3,46.3,81,81,81,29.94,29.94,0,0,0,0.00
2013-2-17,52.0,52.0,52.0,46.3,46.3,46.3,81,81,81,29.94,29.94,0,0,0,0.00
2013-9-28,70.5,69.2,52.0,59.7,58.5,46.3,83,69,68,29.94,29.47,20,7,20,0.00
2013-9-29,68.7,68.1,67.1,58.1,57.6,57.0,70,69,69,29.56,29.50,16,7,16,0.00
2013-9-30,70.2,68.9,68.0,59.5,58.2,57.0,69,69,68,29.56,29.47,17,6,17,0.00
2013-10-1,70.3,69.5,69.1,59.7,58.9,58.5,69,69,69,29.56,29.47,20,10,20,0.00
2013-10-2,70.3,69.3,68.5,60.1,58.9,58.0,70,69,69,29.65,29.53,24,12,24,0.00
2013-10-3,70.0,69.6,69.3,59.7,59.4,59.1,70,70,69,29.62,29.41,20,7,20,0.00
2013-10-4,72.5,70.3,69.3,61.7,60.0,59.1,70,70,69,29.85,29.41,24,6,24,0.00
2013-10-5,70.7,68.4,48.0,59.7,58.1,46.0,94,70,68,30.15,29.50,10,1,10,0.00
2013-10-6,68.5,66.8,65.5,57.6,56.1,46.4,69,68,68,30.18,30.12,4,0,4,0.00
2013-10-11,64.0,63.8,63.5,52.0,51.8,51.5,65,65,65,30.03,30.03,21,11,21,0.00
2013-10-24,65.1,64.5,63.3,55.1,54.5,50.9,71,70,64,29.74,29.47,18,8,18,0.00
2013-10-25,67.8,66.0,64.8,58.1,56.0,54.7,71,70,69,29.56,29.35,18,11,19,0.00
2013-10-26,67.8,66.7,66.0,58.1,56.7,56.0,71,70,70,29.59,29.35,28,9,28,0.00
2013-10-27,66.2,65.0,64.4,56.1,55.0,54.4,70,70,70,29.41,28.97,25,10,25,0.00
2013-10-28,66.6,64.5,63.1,56.1,54.3,36.7,71,70,69,29.62,28.85,32,9,32,0.00
2013-10-29,64.9,62.6,61.2,54.1,51.9,31.0,69,68,66,30.03,29.59,15,3,15,0.00
2013-10-30,61.2,59.4,57.9,50.1,48.4,47.0,67,67,67,30.06,30.00,10,0,10,0.00